Terminal Aerodrome Forecast
Issued by NWS Charleston, WV

Current Version | Previous Version | Text Only | Print | Product List | Glossary On
Versions: 1 2 3 4 5 6 7 8 9 10 11 12 13 14 15 16 17 18 19
000
FTUS41 KRLX 300537
TAFBKW
TAF
KBKW 300537Z 3006/3106 17004KT P6SM SKC
     FM300800 00000KT P6SM BKN035
     FM301200 00000KT P6SM BKN025
     FM301700 VRB03KT P6SM BKN040
     FM301800 VRB03KT P6SM VCTS BKN040CB
     FM310000 VRB03KT P6SM BKN040=

USA.gov is the U.S. government's official web portal to all federal, state and local government web resources and services.